sensor_id;sensor_type;location;lat;lon;timestamp;P1;durP1;ratioP1;P2;durP2;ratioP2
146;SDS011;45999;48.808;9.182;2023-09-19T00:01:33;2.50;;;1.10;;
146;SDS011;45999;48.808;9.182;2023-09-19T00:03:59;2.33;;;0.93;;
146;SDS011;45999;48.808;9.182;2023-09-19T00:06:28;2.43;;;1.03;;
146;SDS011;45999;48.808;9.182;2023-09-19T00:08:56;1.13;;;1.03;;
146;SDS011;45999;48.808;9.182;2023-09-19T00:11:25;0.90;;;0.90;;
146;SDS011;45999;48.808;9.182;2023-09-19T00:13:52;1.67;;;1.07;;
146;SDS011;45999;48.808;9.182;2023-09-19T00:16:19;2.00;;;1.00;;
146;SDS011;45999;48.808;9.182;2023-09-19T00:18:45;1.00;;;0.87;;
146;SDS011;45999;48.808;9.182;2023-09-19T00:21:13;2.57;;;1.00;;
146;SDS011;45999;48.808;9.182;2023-09-19T00:23:40;1.10;;;0.80;;
146;SDS011;45999;48.808;9.182;2023-09-19T00:26:07;0.87;;;0.83;;
146;SDS011;45999;48.808;9.182;2023-09-19T00:28:33;2.50;;;1.10;;
146;SDS011;45999;48.808;9.182;2023-09-19T00:31:00;0.97;;;0.90;;
146;SDS011;45999;48.808;9.182;2023-09-19T00:33:27;1.47;;;0.90;;
146;SDS011;45999;48.808;9.182;2023-09-19T00:35:54;1.90;;;1.10;;
146;SDS011;45999;48.808;9.182;2023-09-19T00:38:22;1.20;;;1.10;;
146;SDS011;45999;48.808;9.182;2023-09-19T00:40:51;1.63;;;1.00;;
146;SDS011;45999;48.808;9.182;2023-09-19T00:43:22;2.07;;;1.20;;
146;SDS011;45999;48.808;9.182;2023-09-19T00:45:50;0.83;;;0.83;;
146;SDS011;45999;48.808;9.182;2023-09-19T00:48:19;2.20;;;0.70;;
146;SDS011;45999;48.808;9.182;2023-09-19T00:50:46;0.97;;;0.80;;
146;SDS011;45999;48.808;9.182;2023-09-19T00:53:15;1.07;;;0.97;;
146;SDS011;45999;48.808;9.182;2023-09-19T00:55:46;1.10;;;1.00;;
146;SDS011;45999;48.808;9.182;2023-09-19T00:58:14;0.87;;;0.87;;
146;SDS011;45999;48.808;9.182;2023-09-19T01:00:43;1.73;;;1.00;;
146;SDS011;45999;48.808;9.182;2023-09-19T01:03:10;1.23;;;1.03;;
146;SDS011;45999;48.808;9.182;2023-09-19T01:05:38;0.90;;;0.90;;
146;SDS011;45999;48.808;9.182;2023-09-19T01:08:04;1.60;;;0.93;;
146;SDS011;45999;48.808;9.182;2023-09-19T01:10:31;2.83;;;1.17;;
146;SDS011;45999;48.808;9.182;2023-09-19T01:13:08;2.33;;;1.10;;
146;SDS011;45999;48.808;9.182;2023-09-19T01:21:30;1.50;;;1.00;;
146;SDS011;45999;48.808;9.182;2023-09-19T01:24:37;1.10;;;0.90;;
146;SDS011;45999;48.808;9.182;2023-09-19T01:30:35;1.20;;;0.90;;
146;SDS011;45999;48.808;9.182;2023-09-19T01:33:05;1.10;;;0.90;;
146;SDS011;45999;48.808;9.182;2023-09-19T01:35:33;1.23;;;0.80;;
146;SDS011;45999;48.808;9.182;2023-09-19T01:37:59;1.70;;;0.90;;
146;SDS011;45999;48.808;9.182;2023-09-19T01:40:25;1.43;;;1.17;;
146;SDS011;45999;48.808;9.182;2023-09-19T01:42:58;1.43;;;0.90;;
146;SDS011;45999;48.808;9.182;2023-09-19T01:48:33;1.30;;;0.80;;
146;SDS011;45999;48.808;9.182;2023-09-19T01:51:07;1.10;;;0.90;;
146;SDS011;45999;48.808;9.182;2023-09-19T01:53:40;1.60;;;1.07;;
146;SDS011;45999;48.808;9.182;2023-09-19T01:56:19;1.13;;;0.90;;
146;SDS011;45999;48.808;9.182;2023-09-19T01:58:53;1.77;;;0.97;;
146;SDS011;45999;48.808;9.182;2023-09-19T02:01:22;0.93;;;0.80;;
146;SDS011;45999;48.808;9.182;2023-09-19T02:03:51;1.23;;;0.80;;
146;SDS011;45999;48.808;9.182;2023-09-19T02:06:18;1.47;;;1.07;;
146;SDS011;45999;48.808;9.182;2023-09-19T02:08:46;1.30;;;1.03;;
146;SDS011;45999;48.808;9.182;2023-09-19T02:11:13;1.07;;;0.93;;
146;SDS011;45999;48.808;9.182;2023-09-19T02:13:40;1.93;;;1.00;;
146;SDS011;45999;48.808;9.182;2023-09-19T02:16:07;0.80;;;0.80;;
146;SDS011;45999;48.808;9.182;2023-09-19T02:18:34;1.33;;;0.90;;
146;SDS011;45999;48.808;9.182;2023-09-19T02:21:01;0.90;;;0.90;;
146;SDS011;45999;48.808;9.182;2023-09-19T02:23:29;1.00;;;0.80;;
146;SDS011;45999;48.808;9.182;2023-09-19T02:25:58;0.80;;;0.80;;
146;SDS011;45999;48.808;9.182;2023-09-19T02:28:26;2.83;;;1.00;;
146;SDS011;45999;48.808;9.182;2023-09-19T02:30:55;1.20;;;0.80;;
146;SDS011;45999;48.808;9.182;2023-09-19T02:33:21;1.87;;;0.77;;
146;SDS011;45999;48.808;9.182;2023-09-19T02:35:48;0.83;;;0.80;;
146;SDS011;45999;48.808;9.182;2023-09-19T02:38:15;0.90;;;0.87;;
146;SDS011;45999;48.808;9.182;2023-09-19T02:40:46;1.13;;;0.90;;
146;SDS011;45999;48.808;9.182;2023-09-19T02:43:12;1.13;;;0.80;;
146;SDS011;45999;48.808;9.182;2023-09-19T02:45:39;1.57;;;0.83;;
146;SDS011;45999;48.808;9.182;2023-09-19T02:48:05;0.83;;;0.83;;
146;SDS011;45999;48.808;9.182;2023-09-19T02:50:32;2.10;;;0.90;;
146;SDS011;45999;48.808;9.182;2023-09-19T02:52:59;1.97;;;1.00;;
146;SDS011;45999;48.808;9.182;2023-09-19T02:55:26;1.87;;;1.00;;
146;SDS011;45999;48.808;9.182;2023-09-19T02:57:53;1.07;;;0.90;;
146;SDS011;45999;48.808;9.182;2023-09-19T03:00:21;0.93;;;0.90;;
146;SDS011;45999;48.808;9.182;2023-09-19T03:02:52;1.00;;;0.90;;
146;SDS011;45999;48.808;9.182;2023-09-19T03:05:20;1.50;;;0.80;;
146;SDS011;45999;48.808;9.182;2023-09-19T03:07:48;1.10;;;0.90;;
146;SDS011;45999;48.808;9.182;2023-09-19T03:10:17;1.73;;;0.70;;
146;SDS011;45999;48.808;9.182;2023-09-19T03:12:45;2.60;;;0.80;;
146;SDS011;45999;48.808;9.182;2023-09-19T03:15:15;2.10;;;1.00;;
146;SDS011;45999;48.808;9.182;2023-09-19T03:17:46;1.43;;;0.90;;
146;SDS011;45999;48.808;9.182;2023-09-19T03:20:13;1.97;;;0.97;;
146;SDS011;45999;48.808;9.182;2023-09-19T03:22:42;0.70;;;0.70;;
146;SDS011;45999;48.808;9.182;2023-09-19T03:25:09;1.03;;;0.87;;
146;SDS011;45999;48.808;9.182;2023-09-19T03:27:39;2.37;;;1.00;;
146;SDS011;45999;48.808;9.182;2023-09-19T03:30:06;1.97;;;1.00;;
146;SDS011;45999;48.808;9.182;2023-09-19T03:32:37;1.17;;;0.87;;
146;SDS011;45999;48.808;9.182;2023-09-19T03:35:09;1.10;;;1.00;;
146;SDS011;45999;48.808;9.182;2023-09-19T03:37:38;0.70;;;0.70;;
146;SDS011;45999;48.808;9.182;2023-09-19T03:40:05;1.87;;;0.83;;
146;SDS011;45999;48.808;9.182;2023-09-19T03:42:33;1.47;;;0.80;;
146;SDS011;45999;48.808;9.182;2023-09-19T03:45:01;2.03;;;1.13;;
146;SDS011;45999;48.808;9.182;2023-09-19T03:47:31;2.40;;;0.90;;
146;SDS011;45999;48.808;9.182;2023-09-19T03:49:57;0.90;;;0.90;;
146;SDS011;45999;48.808;9.182;2023-09-19T03:52:24;2.20;;;1.00;;
146;SDS011;45999;48.808;9.182;2023-09-19T03:54:50;1.63;;;0.90;;
146;SDS011;45999;48.808;9.182;2023-09-19T03:57:17;1.40;;;0.90;;
146;SDS011;45999;48.808;9.182;2023-09-19T03:59:45;0.97;;;0.97;;
146;SDS011;45999;48.808;9.182;2023-09-19T04:02:12;1.80;;;0.90;;
146;SDS011;45999;48.808;9.182;2023-09-19T04:04:50;1.00;;;0.93;;
146;SDS011;45999;48.808;9.182;2023-09-19T04:07:19;1.23;;;0.90;;
146;SDS011;45999;48.808;9.182;2023-09-19T04:09:47;1.53;;;1.00;;
146;SDS011;45999;48.808;9.182;2023-09-19T04:12:14;1.10;;;1.00;;
146;SDS011;45999;48.808;9.182;2023-09-19T04:14:41;1.20;;;0.83;;
146;SDS011;45999;48.808;9.182;2023-09-19T04:17:08;0.90;;;0.90;;
146;SDS011;45999;48.808;9.182;2023-09-19T04:19:35;1.27;;;0.97;;
146;SDS011;45999;48.808;9.182;2023-09-19T04:22:01;1.20;;;1.10;;
146;SDS011;45999;48.808;9.182;2023-09-19T04:24:29;0.80;;;0.80;;
146;SDS011;45999;48.808;9.182;2023-09-19T04:26:57;1.40;;;1.30;;
146;SDS011;45999;48.808;9.182;2023-09-19T04:29:24;3.13;;;1.17;;
146;SDS011;45999;48.808;9.182;2023-09-19T04:31:51;1.23;;;1.10;;
146;SDS011;45999;48.808;9.182;2023-09-19T04:34:18;1.10;;;1.00;;
146;SDS011;45999;48.808;9.182;2023-09-19T04:36:44;1.83;;;0.90;;
146;SDS011;45999;48.808;9.182;2023-09-19T04:39:10;1.57;;;1.00;;
146;SDS011;45999;48.808;9.182;2023-09-19T04:41:37;2.23;;;1.10;;
146;SDS011;45999;48.808;9.182;2023-09-19T04:44:05;1.20;;;1.10;;
146;SDS011;45999;48.808;9.182;2023-09-19T04:46:32;1.40;;;0.97;;
146;SDS011;45999;48.808;9.182;2023-09-19T04:48:58;1.17;;;1.00;;
146;SDS011;45999;48.808;9.182;2023-09-19T04:51:25;2.03;;;1.20;;
146;SDS011;45999;48.808;9.182;2023-09-19T04:53:54;1.40;;;1.30;;
146;SDS011;45999;48.808;9.182;2023-09-19T04:56:20;1.40;;;1.10;;
146;SDS011;45999;48.808;9.182;2023-09-19T04:58:48;1.73;;;1.17;;
146;SDS011;45999;48.808;9.182;2023-09-19T05:01:14;1.57;;;1.20;;
146;SDS011;45999;48.808;9.182;2023-09-19T05:03:41;2.00;;;1.30;;
146;SDS011;45999;48.808;9.182;2023-09-19T05:06:07;1.33;;;1.10;;
146;SDS011;45999;48.808;9.182;2023-09-19T05:08:34;1.37;;;1.27;;
146;SDS011;45999;48.808;9.182;2023-09-19T05:11:03;5.17;;;1.50;;
146;SDS011;45999;48.808;9.182;2023-09-19T05:13:30;1.87;;;1.27;;
146;SDS011;45999;48.808;9.182;2023-09-19T05:15:59;1.23;;;1.13;;
146;SDS011;45999;48.808;9.182;2023-09-19T05:18:27;1.27;;;1.00;;
146;SDS011;45999;48.808;9.182;2023-09-19T05:20:54;1.40;;;1.30;;
146;SDS011;45999;48.808;9.182;2023-09-19T05:23:21;2.50;;;1.40;;
146;SDS011;45999;48.808;9.182;2023-09-19T05:25:47;1.80;;;1.20;;
146;SDS011;45999;48.808;9.182;2023-09-19T05:28:14;1.57;;;1.10;;
146;SDS011;45999;48.808;9.182;2023-09-19T05:30:40;2.50;;;1.23;;
146;SDS011;45999;48.808;9.182;2023-09-19T05:33:08;2.93;;;1.60;;
146;SDS011;45999;48.808;9.182;2023-09-19T05:35:35;2.30;;;1.60;;
146;SDS011;45999;48.808;9.182;2023-09-19T05:38:06;2.83;;;1.50;;
146;SDS011;45999;48.808;9.182;2023-09-19T05:40:35;3.73;;;1.80;;
146;SDS011;45999;48.808;9.182;2023-09-19T05:43:03;1.67;;;1.57;;
146;SDS011;45999;48.808;9.182;2023-09-19T05:45:30;2.97;;;1.73;;
146;SDS011;45999;48.808;9.182;2023-09-19T05:48:06;4.30;;;1.83;;
146;SDS011;45999;48.808;9.182;2023-09-19T05:50:38;2.10;;;1.83;;
146;SDS011;45999;48.808;9.182;2023-09-19T05:53:05;4.03;;;1.70;;
146;SDS011;45999;48.808;9.182;2023-09-19T05:55:32;1.77;;;1.63;;
146;SDS011;45999;48.808;9.182;2023-09-19T05:58:00;4.07;;;1.80;;
146;SDS011;45999;48.808;9.182;2023-09-19T06:00:28;2.73;;;1.70;;
146;SDS011;45999;48.808;9.182;2023-09-19T06:02:57;1.73;;;1.63;;
146;SDS011;45999;48.808;9.182;2023-09-19T06:05:25;4.50;;;2.70;;
146;SDS011;45999;48.808;9.182;2023-09-19T06:07:52;3.17;;;1.70;;
146;SDS011;45999;48.808;9.182;2023-09-19T06:10:19;3.77;;;1.50;;
146;SDS011;45999;48.808;9.182;2023-09-19T06:12:48;3.07;;;1.70;;
146;SDS011;45999;48.808;9.182;2023-09-19T06:15:15;2.00;;;1.50;;
146;SDS011;45999;48.808;9.182;2023-09-19T06:17:47;3.60;;;1.90;;
146;SDS011;45999;48.808;9.182;2023-09-19T06:20:14;3.07;;;1.83;;
146;SDS011;45999;48.808;9.182;2023-09-19T06:22:42;3.20;;;2.17;;
146;SDS011;45999;48.808;9.182;2023-09-19T06:25:09;2.23;;;2.00;;
146;SDS011;45999;48.808;9.182;2023-09-19T06:27:38;2.57;;;1.87;;
146;SDS011;45999;48.808;9.182;2023-09-19T06:30:07;10.50;;;2.30;;
146;SDS011;45999;48.808;9.182;2023-09-19T06:32:34;4.30;;;2.40;;
146;SDS011;45999;48.808;9.182;2023-09-19T06:35:01;3.23;;;1.87;;
146;SDS011;45999;48.808;9.182;2023-09-19T06:37:28;2.20;;;1.97;;
146;SDS011;45999;48.808;9.182;2023-09-19T06:39:55;5.53;;;2.33;;
146;SDS011;45999;48.808;9.182;2023-09-19T06:42:22;2.53;;;2.23;;
146;SDS011;45999;48.808;9.182;2023-09-19T06:44:49;4.77;;;2.20;;
146;SDS011;45999;48.808;9.182;2023-09-19T06:47:15;4.37;;;2.10;;
146;SDS011;45999;48.808;9.182;2023-09-19T06:49:42;2.60;;;2.00;;
146;SDS011;45999;48.808;9.182;2023-09-19T06:52:10;4.00;;;2.13;;
146;SDS011;45999;48.808;9.182;2023-09-19T06:54:36;4.27;;;2.20;;
146;SDS011;45999;48.808;9.182;2023-09-19T06:57:04;3.87;;;2.30;;
146;SDS011;45999;48.808;9.182;2023-09-19T06:59:34;4.50;;;2.03;;
146;SDS011;45999;48.808;9.182;2023-09-19T07:02:02;4.30;;;2.40;;
146;SDS011;45999;48.808;9.182;2023-09-19T07:04:31;3.37;;;2.10;;
146;SDS011;45999;48.808;9.182;2023-09-19T07:06:58;2.33;;;1.90;;
146;SDS011;45999;48.808;9.182;2023-09-19T07:09:24;3.67;;;2.17;;
146;SDS011;45999;48.808;9.182;2023-09-19T07:11:52;4.87;;;2.10;;
146;SDS011;45999;48.808;9.182;2023-09-19T07:14:18;3.43;;;1.70;;
146;SDS011;45999;48.808;9.182;2023-09-19T07:16:45;2.33;;;1.77;;
146;SDS011;45999;48.808;9.182;2023-09-19T07:19:12;3.10;;;1.90;;
146;SDS011;45999;48.808;9.182;2023-09-19T07:21:40;4.57;;;2.13;;
146;SDS011;45999;48.808;9.182;2023-09-19T07:24:07;2.30;;;1.77;;
146;SDS011;45999;48.808;9.182;2023-09-19T07:26:34;3.13;;;2.03;;
146;SDS011;45999;48.808;9.182;2023-09-19T07:29:00;4.97;;;1.77;;
146;SDS011;45999;48.808;9.182;2023-09-19T07:31:28;3.83;;;1.80;;
146;SDS011;45999;48.808;9.182;2023-09-19T07:33:56;4.00;;;1.90;;
146;SDS011;45999;48.808;9.182;2023-09-19T07:36:22;1.47;;;1.37;;
146;SDS011;45999;48.808;9.182;2023-09-19T07:38:49;2.40;;;2.03;;
146;SDS011;45999;48.808;9.182;2023-09-19T07:41:16;2.07;;;1.73;;
146;SDS011;45999;48.808;9.182;2023-09-19T07:43:42;6.70;;;1.80;;
146;SDS011;45999;48.808;9.182;2023-09-19T07:46:09;5.03;;;1.90;;
146;SDS011;45999;48.808;9.182;2023-09-19T07:48:36;4.50;;;1.83;;
146;SDS011;45999;48.808;9.182;2023-09-19T07:51:06;3.20;;;2.03;;
146;SDS011;45999;48.808;9.182;2023-09-19T07:53:34;2.67;;;2.00;;
146;SDS011;45999;48.808;9.182;2023-09-19T07:56:04;2.97;;;1.50;;
146;SDS011;45999;48.808;9.182;2023-09-19T07:58:32;2.73;;;1.60;;
146;SDS011;45999;48.808;9.182;2023-09-19T08:01:05;4.07;;;1.60;;
146;SDS011;45999;48.808;9.182;2023-09-19T08:03:36;1.50;;;1.40;;
146;SDS011;45999;48.808;9.182;2023-09-19T08:06:05;2.80;;;1.70;;
146;SDS011;45999;48.808;9.182;2023-09-19T08:08:35;1.80;;;1.70;;
146;SDS011;45999;48.808;9.182;2023-09-19T08:11:02;3.47;;;1.50;;
146;SDS011;45999;48.808;9.182;2023-09-19T08:13:35;3.23;;;1.60;;
146;SDS011;45999;48.808;9.182;2023-09-19T08:16:02;4.40;;;1.70;;
146;SDS011;45999;48.808;9.182;2023-09-19T08:18:30;2.53;;;1.63;;
146;SDS011;45999;48.808;9.182;2023-09-19T08:20:56;2.13;;;1.60;;
146;SDS011;45999;48.808;9.182;2023-09-19T08:23:23;1.67;;;1.40;;
146;SDS011;45999;48.808;9.182;2023-09-19T08:25:50;1.60;;;1.50;;
146;SDS011;45999;48.808;9.182;2023-09-19T08:28:16;4.63;;;1.60;;
146;SDS011;45999;48.808;9.182;2023-09-19T08:30:47;3.67;;;1.60;;
146;SDS011;45999;48.808;9.182;2023-09-19T08:33:13;2.70;;;1.67;;
146;SDS011;45999;48.808;9.182;2023-09-19T08:35:41;5.73;;;1.60;;
146;SDS011;45999;48.808;9.182;2023-09-19T08:38:09;2.33;;;1.53;;
146;SDS011;45999;48.808;9.182;2023-09-19T08:40:39;2.57;;;1.30;;
146;SDS011;45999;48.808;9.182;2023-09-19T08:43:07;3.00;;;1.30;;
146;SDS011;45999;48.808;9.182;2023-09-19T08:45:34;2.87;;;1.40;;
146;SDS011;45999;48.808;9.182;2023-09-19T08:51:03;2.27;;;1.30;;
146;SDS011;45999;48.808;9.182;2023-09-19T08:56:29;2.20;;;1.10;;
146;SDS011;45999;48.808;9.182;2023-09-19T08:58:59;1.83;;;1.23;;
146;SDS011;45999;48.808;9.182;2023-09-19T09:01:28;2.80;;;1.20;;
146;SDS011;45999;48.808;9.182;2023-09-19T09:03:57;1.60;;;1.20;;
146;SDS011;45999;48.808;9.182;2023-09-19T09:06:24;2.10;;;1.27;;
146;SDS011;45999;48.808;9.182;2023-09-19T09:08:53;1.20;;;1.10;;
146;SDS011;45999;48.808;9.182;2023-09-19T09:11:20;1.57;;;1.10;;
146;SDS011;45999;48.808;9.182;2023-09-19T09:13:48;2.80;;;1.00;;
146;SDS011;45999;48.808;9.182;2023-09-19T09:16:15;2.23;;;1.40;;
146;SDS011;45999;48.808;9.182;2023-09-19T09:18:43;2.20;;;1.37;;
146;SDS011;45999;48.808;9.182;2023-09-19T09:21:10;1.60;;;1.40;;
146;SDS011;45999;48.808;9.182;2023-09-19T09:23:38;1.40;;;1.13;;
146;SDS011;45999;48.808;9.182;2023-09-19T09:26:05;1.80;;;1.67;;
146;SDS011;45999;48.808;9.182;2023-09-19T09:28:32;2.83;;;1.50;;
146;SDS011;45999;48.808;9.182;2023-09-19T09:31:00;2.17;;;1.33;;
146;SDS011;45999;48.808;9.182;2023-09-19T09:33:33;1.93;;;1.23;;
146;SDS011;45999;48.808;9.182;2023-09-19T09:36:00;1.93;;;1.30;;
146;SDS011;45999;48.808;9.182;2023-09-19T09:38:30;1.87;;;1.33;;
146;SDS011;45999;48.808;9.182;2023-09-19T09:41:10;1.63;;;1.23;;
146;SDS011;45999;48.808;9.182;2023-09-19T09:43:52;3.43;;;1.60;;
146;SDS011;45999;48.808;9.182;2023-09-19T09:46:19;2.87;;;1.20;;
146;SDS011;45999;48.808;9.182;2023-09-19T09:49:05;2.10;;;1.30;;
146;SDS011;45999;48.808;9.182;2023-09-19T09:51:41;2.07;;;1.47;;
146;SDS011;45999;48.808;9.182;2023-09-19T09:54:12;2.07;;;1.30;;
146;SDS011;45999;48.808;9.182;2023-09-19T09:56:56;4.13;;;1.50;;
146;SDS011;45999;48.808;9.182;2023-09-19T10:02:13;2.47;;;1.30;;
146;SDS011;45999;48.808;9.182;2023-09-19T10:04:45;1.23;;;1.00;;
146;SDS011;45999;48.808;9.182;2023-09-19T10:07:30;2.17;;;1.20;;
146;SDS011;45999;48.808;9.182;2023-09-19T10:10:01;5.53;;;1.40;;
146;SDS011;45999;48.808;9.182;2023-09-19T10:12:42;3.27;;;1.30;;
146;SDS011;45999;48.808;9.182;2023-09-19T10:15:11;1.40;;;1.30;;
146;SDS011;45999;48.808;9.182;2023-09-19T10:17:40;1.40;;;1.27;;
146;SDS011;45999;48.808;9.182;2023-09-19T10:20:10;3.87;;;1.47;;
146;SDS011;45999;48.808;9.182;2023-09-19T10:22:48;5.53;;;1.20;;
146;SDS011;45999;48.808;9.182;2023-09-19T10:25:23;2.23;;;1.43;;
146;SDS011;45999;48.808;9.182;2023-09-19T10:27:53;2.07;;;1.20;;
146;SDS011;45999;48.808;9.182;2023-09-19T10:30:22;1.57;;;1.40;;
146;SDS011;45999;48.808;9.182;2023-09-19T10:32:54;1.33;;;1.13;;
146;SDS011;45999;48.808;9.182;2023-09-19T10:35:25;2.60;;;1.23;;
146;SDS011;45999;48.808;9.182;2023-09-19T10:37:53;2.80;;;1.30;;
146;SDS011;45999;48.808;9.182;2023-09-19T10:40:22;2.37;;;1.33;;
146;SDS011;45999;48.808;9.182;2023-09-19T10:42:56;1.30;;;1.20;;
146;SDS011;45999;48.808;9.182;2023-09-19T10:45:28;1.80;;;1.10;;
146;SDS011;45999;48.808;9.182;2023-09-19T10:47:56;2.00;;;1.27;;
146;SDS011;45999;48.808;9.182;2023-09-19T10:50:23;3.27;;;1.27;;
146;SDS011;45999;48.808;9.182;2023-09-19T10:52:50;2.17;;;1.13;;
146;SDS011;45999;48.808;9.182;2023-09-19T10:55:25;1.57;;;1.13;;
146;SDS011;45999;48.808;9.182;2023-09-19T10:57:55;1.63;;;1.23;;
146;SDS011;45999;48.808;9.182;2023-09-19T11:00:22;2.63;;;0.97;;
146;SDS011;45999;48.808;9.182;2023-09-19T11:05:37;2.70;;;1.20;;
146;SDS011;45999;48.808;9.182;2023-09-19T11:08:09;1.73;;;1.03;;
146;SDS011;45999;48.808;9.182;2023-09-19T11:10:46;2.10;;;1.20;;
146;SDS011;45999;48.808;9.182;2023-09-19T11:26:42;2.33;;;1.00;;
146;SDS011;45999;48.808;9.182;2023-09-19T11:29:24;2.43;;;1.20;;
146;SDS011;45999;48.808;9.182;2023-09-19T11:31:52;1.40;;;1.30;;
146;SDS011;45999;48.808;9.182;2023-09-19T11:34:42;1.13;;;1.03;;
146;SDS011;45999;48.808;9.182;2023-09-19T11:39:37;1.10;;;1.00;;
146;SDS011;45999;48.808;9.182;2023-09-19T11:48:10;1.03;;;0.93;;
146;SDS011;45999;48.808;9.182;2023-09-19T11:50:41;2.70;;;1.13;;
146;SDS011;45999;48.808;9.182;2023-09-19T11:53:09;3.37;;;1.00;;
146;SDS011;45999;48.808;9.182;2023-09-19T11:55:38;2.15;;;0.90;;
146;SDS011;45999;48.808;9.182;2023-09-19T11:58:06;1.20;;;1.10;;
146;SDS011;45999;48.808;9.182;2023-09-19T12:00:34;1.85;;;1.27;;
146;SDS011;45999;48.808;9.182;2023-09-19T12:03:06;1.45;;;1.02;;
146;SDS011;45999;48.808;9.182;2023-09-19T12:05:35;1.23;;;1.00;;
146;SDS011;45999;48.808;9.182;2023-09-19T12:08:02;1.00;;;0.80;;
146;SDS011;45999;48.808;9.182;2023-09-19T12:10:34;1.67;;;1.00;;
146;SDS011;45999;48.808;9.182;2023-09-19T12:13:15;1.25;;;0.88;;
146;SDS011;45999;48.808;9.182;2023-09-19T12:15:42;2.40;;;1.30;;
146;SDS011;45999;48.808;9.182;2023-09-19T12:18:10;1.38;;;1.20;;
146;SDS011;45999;48.808;9.182;2023-09-19T12:20:51;1.65;;;1.20;;
146;SDS011;45999;48.808;9.182;2023-09-19T12:23:19;1.10;;;0.95;;
146;SDS011;45999;48.808;9.182;2023-09-19T12:25:46;1.07;;;0.90;;
146;SDS011;45999;48.808;9.182;2023-09-19T12:28:16;0.97;;;0.90;;
146;SDS011;45999;48.808;9.182;2023-09-19T12:30:42;2.20;;;1.10;;
146;SDS011;45999;48.808;9.182;2023-09-19T12:33:18;2.20;;;1.30;;
146;SDS011;45999;48.808;9.182;2023-09-19T12:35:46;4.20;;;1.30;;
146;SDS011;45999;48.808;9.182;2023-09-19T12:38:25;2.97;;;1.10;;
146;SDS011;45999;48.808;9.182;2023-09-19T12:40:55;2.15;;;1.15;;
146;SDS011;45999;48.808;9.182;2023-09-19T12:43:25;2.05;;;1.30;;
146;SDS011;45999;48.808;9.182;2023-09-19T12:45:52;2.23;;;1.00;;
146;SDS011;45999;48.808;9.182;2023-09-19T12:53:41;1.70;;;1.20;;
146;SDS011;45999;48.808;9.182;2023-09-19T12:56:14;1.53;;;1.00;;
146;SDS011;45999;48.808;9.182;2023-09-19T13:01:19;1.17;;;1.05;;
146;SDS011;45999;48.808;9.182;2023-09-19T13:04:10;1.52;;;1.08;;
146;SDS011;45999;48.808;9.182;2023-09-19T13:06:43;3.20;;;1.35;;
146;SDS011;45999;48.808;9.182;2023-09-19T13:09:10;2.13;;;1.02;;
146;SDS011;45999;48.808;9.182;2023-09-19T13:11:39;1.52;;;1.20;;
146;SDS011;45999;48.808;9.182;2023-09-19T13:17:02;1.30;;;1.02;;
146;SDS011;45999;48.808;9.182;2023-09-19T13:25:03;2.03;;;1.27;;
146;SDS011;45999;48.808;9.182;2023-09-19T13:27:31;1.38;;;1.20;;
146;SDS011;45999;48.808;9.182;2023-09-19T13:29:58;1.10;;;1.00;;
146;SDS011;45999;48.808;9.182;2023-09-19T13:32:25;1.98;;;0.90;;
146;SDS011;45999;48.808;9.182;2023-09-19T13:34:52;1.33;;;1.23;;
146;SDS011;45999;48.808;9.182;2023-09-19T13:37:18;1.42;;;1.30;;
146;SDS011;45999;48.808;9.182;2023-09-19T13:39:45;2.63;;;1.50;;
146;SDS011;45999;48.808;9.182;2023-09-19T13:42:13;1.42;;;1.33;;
146;SDS011;45999;48.808;9.182;2023-09-19T13:44:41;3.70;;;1.50;;
146;SDS011;45999;48.808;9.182;2023-09-19T13:47:07;5.50;;;1.52;;
146;SDS011;45999;48.808;9.182;2023-09-19T13:49:35;2.97;;;1.42;;
146;SDS011;45999;48.808;9.182;2023-09-19T13:52:03;1.20;;;1.10;;
146;SDS011;45999;48.808;9.182;2023-09-19T13:54:30;2.05;;;1.17;;
146;SDS011;45999;48.808;9.182;2023-09-19T13:56:57;1.30;;;1.20;;
146;SDS011;45999;48.808;9.182;2023-09-19T13:59:23;2.97;;;1.30;;
146;SDS011;45999;48.808;9.182;2023-09-19T14:01:50;2.00;;;1.30;;
146;SDS011;45999;48.808;9.182;2023-09-19T14:04:18;1.40;;;1.30;;
146;SDS011;45999;48.808;9.182;2023-09-19T14:06:45;1.85;;;1.20;;
146;SDS011;45999;48.808;9.182;2023-09-19T14:09:12;2.25;;;1.20;;
146;SDS011;45999;48.808;9.182;2023-09-19T14:11:39;3.10;;;1.38;;
146;SDS011;45999;48.808;9.182;2023-09-19T14:14:07;1.40;;;1.30;;
146;SDS011;45999;48.808;9.182;2023-09-19T14:16:33;2.65;;;1.42;;
146;SDS011;45999;48.808;9.182;2023-09-19T14:18:59;1.30;;;1.20;;
146;SDS011;45999;48.808;9.182;2023-09-19T14:21:26;1.83;;;1.20;;
146;SDS011;45999;48.808;9.182;2023-09-19T14:23:52;1.25;;;1.15;;
146;SDS011;45999;48.808;9.182;2023-09-19T14:26:19;1.20;;;1.10;;
146;SDS011;45999;48.808;9.182;2023-09-19T14:28:48;2.70;;;1.20;;
146;SDS011;45999;48.808;9.182;2023-09-19T14:31:14;1.88;;;1.30;;
146;SDS011;45999;48.808;9.182;2023-09-19T14:33:41;2.33;;;1.20;;
146;SDS011;45999;48.808;9.182;2023-09-19T14:36:08;1.77;;;1.30;;
146;SDS011;45999;48.808;9.182;2023-09-19T14:38:36;1.48;;;1.30;;
146;SDS011;45999;48.808;9.182;2023-09-19T14:41:04;2.55;;;1.40;;
146;SDS011;45999;48.808;9.182;2023-09-19T14:43:32;1.52;;;1.42;;
146;SDS011;45999;48.808;9.182;2023-09-19T14:46:08;4.35;;;1.40;;
146;SDS011;45999;48.808;9.182;2023-09-19T14:48:35;1.00;;;1.00;;
146;SDS011;45999;48.808;9.182;2023-09-19T14:51:05;1.40;;;1.30;;
146;SDS011;45999;48.808;9.182;2023-09-19T14:53:34;1.30;;;1.20;;
146;SDS011;45999;48.808;9.182;2023-09-19T14:56:02;1.50;;;1.20;;
146;SDS011;45999;48.808;9.182;2023-09-19T14:58:30;1.35;;;1.20;;
146;SDS011;45999;48.808;9.182;2023-09-19T15:01:06;1.33;;;1.17;;
146;SDS011;45999;48.808;9.182;2023-09-19T15:03:37;1.30;;;1.20;;
146;SDS011;45999;48.808;9.182;2023-09-19T15:06:06;1.02;;;1.00;;
146;SDS011;45999;48.808;9.182;2023-09-19T15:08:37;1.65;;;1.17;;
146;SDS011;45999;48.808;9.182;2023-09-19T15:11:05;1.65;;;1.27;;
146;SDS011;45999;48.808;9.182;2023-09-19T15:13:32;2.13;;;1.42;;
146;SDS011;45999;48.808;9.182;2023-09-19T15:16:00;1.93;;;1.20;;
146;SDS011;45999;48.808;9.182;2023-09-19T15:18:27;3.33;;;1.20;;
146;SDS011;45999;48.808;9.182;2023-09-19T15:20:55;0.90;;;0.90;;
146;SDS011;45999;48.808;9.182;2023-09-19T15:23:22;1.52;;;1.10;;
146;SDS011;45999;48.808;9.182;2023-09-19T15:25:49;1.30;;;1.20;;
146;SDS011;45999;48.808;9.182;2023-09-19T15:28:16;1.02;;;1.00;;
146;SDS011;45999;48.808;9.182;2023-09-19T15:30:42;1.10;;;1.00;;
146;SDS011;45999;48.808;9.182;2023-09-19T15:33:10;1.58;;;1.02;;
146;SDS011;45999;48.808;9.182;2023-09-19T15:35:36;1.20;;;1.10;;
146;SDS011;45999;48.808;9.182;2023-09-19T15:38:03;1.35;;;1.00;;
146;SDS011;45999;48.808;9.182;2023-09-19T15:40:30;1.13;;;1.00;;
146;SDS011;45999;48.808;9.182;2023-09-19T15:42:56;1.25;;;1.10;;
146;SDS011;45999;48.808;9.182;2023-09-19T15:45:23;1.10;;;1.00;;
146;SDS011;45999;48.808;9.182;2023-09-19T15:47:51;1.20;;;1.08;;
146;SDS011;45999;48.808;9.182;2023-09-19T15:50:18;1.10;;;1.00;;
146;SDS011;45999;48.808;9.182;2023-09-19T15:52:44;1.50;;;1.15;;
146;SDS011;45999;48.808;9.182;2023-09-19T15:55:10;1.23;;;1.00;;
146;SDS011;45999;48.808;9.182;2023-09-19T15:57:37;1.25;;;1.02;;
146;SDS011;45999;48.808;9.182;2023-09-19T16:00:05;1.23;;;1.05;;
146;SDS011;45999;48.808;9.182;2023-09-19T16:02:35;1.33;;;1.23;;
146;SDS011;45999;48.808;9.182;2023-09-19T16:05:04;1.75;;;1.05;;
146;SDS011;45999;48.808;9.182;2023-09-19T16:07:31;1.60;;;1.27;;
146;SDS011;45999;48.808;9.182;2023-09-19T16:09:59;1.75;;;1.00;;
146;SDS011;45999;48.808;9.182;2023-09-19T16:12:25;1.23;;;1.00;;
146;SDS011;45999;48.808;9.182;2023-09-19T16:14:52;1.43;;;1.17;;
146;SDS011;45999;48.808;9.182;2023-09-19T16:17:18;1.50;;;1.00;;
146;SDS011;45999;48.808;9.182;2023-09-19T16:19:44;1.63;;;0.98;;
146;SDS011;45999;48.808;9.182;2023-09-19T16:22:11;1.30;;;1.10;;
146;SDS011;45999;48.808;9.182;2023-09-19T16:24:38;1.37;;;0.90;;
146;SDS011;45999;48.808;9.182;2023-09-19T16:27:05;0.87;;;0.87;;